Time;durP1;ratioP1;P1;durP2;ratioP2;P2;SDS_P1;SDS_P2;PMS_P1;PMS_P2;Temp;Humidity;BMP_temperature;BMP_pressure;BME280_temperature;BME280_humidity;BME280_pressure;Samples;Min_cycle;Max_cycle;Signal;HPM_P1;HPM_P2
2021/12/11 00:00:37;;;;;;;;;;;;;;;7.69;100.00;100377.44;5075631;28;19959;-55
2021/12/11 00:03:16;;;;;;;;;;;;;;;7.68;100.00;100381.91;5074739;28;19927;-50
2021/12/11 00:05:44;;;;;;;;;;;;;;;7.66;100.00;100381.28;5074344;28;19921;-53
2021/12/11 00:08:10;;;;;;;;;;;;;;;7.68;100.00;100375.78;5074933;28;20319;-54
2021/12/11 00:10:41;;;;;;;;;;;;;;;7.63;100.00;100383.50;5075977;28;19920;-53
2021/12/11 00:13:08;;;;;;;;;;;;;;;7.58;100.00;100392.88;5074610;28;19999;-54
2021/12/11 00:15:36;;;;;;;;;;;;;;;7.56;100.00;100402.06;5074550;28;20008;-51
2021/12/11 00:18:04;;;;;;;;;;;;;;;7.63;100.00;100399.47;5075338;28;19920;-48
2021/12/11 00:20:32;;;;;;;;;;;;;;;7.64;100.00;100414.44;5073934;28;19920;-54
2021/12/11 00:22:58;;;;;;;;;;;;;;;7.61;100.00;100418.28;5074887;28;19927;-52
2021/12/11 00:25:23;;;;;;;;;;;;;;;7.67;100.00;100424.72;5075365;28;19920;-48
2021/12/11 00:27:50;;;;;;;;;;;;;;;7.56;100.00;100421.50;5075781;28;20061;-55
2021/12/11 00:30:25;;;;;;;;;;;;;;;7.49;100.00;100431.25;5073487;28;19921;-50
2021/12/11 00:32:57;;;;;;;;;;;;;;;7.52;100.00;100430.88;5075083;28;19924;-51
2021/12/11 00:35:22;;;;;;;;;;;;;;;7.64;100.00;100441.06;5075162;28;19928;-55
2021/12/11 00:37:48;;;;;;;;;;;;;;;7.61;100.00;100444.91;5075262;28;19924;-55
2021/12/11 00:40:25;;;;;;;;;;;;;;;7.59;100.00;100441.59;5075233;28;19963;-55
2021/12/11 00:42:52;;;;;;;;;;;;;;;7.67;100.00;100454.00;5075439;28;19920;-55
2021/12/11 00:45:20;;;;;;;;;;;;;;;7.59;100.00;100453.06;5073893;28;19921;-55
2021/12/11 00:47:48;;;;;;;;;;;;;;;7.59;100.00;100455.72;5074609;28;19943;-54
2021/12/11 00:50:14;;;;;;;;;;;;;;;7.60;100.00;100468.00;5075168;28;20352;-54
2021/12/11 00:52:43;;;;;;;;;;;;;;;7.72;100.00;100465.72;5074374;28;19956;-49
2021/12/11 00:55:28;;;;;;;;;;;;;;;7.67;100.00;100469.97;5074652;28;20007;-54
2021/12/11 00:58:03;;;;;;;;;;;;;;;7.73;100.00;100474.53;5073718;28;20273;-49
2021/12/11 01:00:33;;;;;;;;;;;;;;;7.71;100.00;100481.88;5074395;28;20429;-49
2021/12/11 01:02:58;;;;;;;;;;;;;;;7.66;100.00;100494.94;5074235;28;19920;-47
2021/12/11 01:05:24;;;;;;;;;;;;;;;7.70;100.00;100494.34;5073830;28;20011;-48
2021/12/11 01:07:49;;;;;;;;;;;;;;;7.69;100.00;100497.22;5073034;28;20322;-53
2021/12/11 01:10:23;;;;;;;;;;;;;;;7.71;100.00;100500.50;5072754;28;19977;-48
2021/12/11 01:12:56;;;;;;;;;;;;;;;7.76;100.00;100506.09;5074470;28;19921;-51
2021/12/11 01:15:22;;;;;;;;;;;;;;;7.72;100.00;100510.16;5074265;28;20471;-49
2021/12/11 01:20:37;;;;;;;;;;;;;;;7.82;100.00;100521.31;5073905;28;19920;-53
2021/12/11 01:23:14;;;;;;;;;;;;;;;7.87;100.00;100529.63;5074123;28;19921;-53
2021/12/11 01:25:39;;;;;;;;;;;;;;;7.87;100.00;100532.28;5073581;28;19928;-54
2021/12/11 01:28:05;;;;;;;;;;;;;;;7.88;100.00;100533.91;5073949;28;19920;-52
2021/12/11 01:30:32;;;;;;;;;;;;;;;7.89;100.00;100538.22;5073695;28;19943;-52
2021/12/11 01:32:58;;;;;;;;;;;;;;;7.89;100.00;100548.88;5073673;28;19967;-52
2021/12/11 01:35:24;;;;;;;;;;;;;;;7.88;100.00;100547.25;5073630;28;20312;-45
2021/12/11 01:37:50;;;;;;;;;;;;;;;7.85;100.00;100557.41;5073888;28;20345;-49
2021/12/11 01:40:18;;;;;;;;;;;;;;;7.84;100.00;100561.94;5073575;28;20395;-53
2021/12/11 01:42:44;;;;;;;;;;;;;;;7.84;100.00;100571.75;5055828;28;19924;-47
2021/12/11 01:45:11;;;;;;;;;;;;;;;7.84;100.00;100572.59;5055682;28;20007;-50
2021/12/11 01:47:38;;;;;;;;;;;;;;;7.80;100.00;100570.47;5074075;28;19917;-50
2021/12/11 01:50:11;;;;;;;;;;;;;;;7.72;100.00;100568.72;5072745;28;19936;-50
2021/12/11 01:52:44;;;;;;;;;;;;;;;7.74;100.00;100580.84;5055614;28;19928;-49
2021/12/11 01:55:24;;;;;;;;;;;;;;;7.77;100.00;100587.63;5073960;28;19927;-48
2021/12/11 01:57:51;;;;;;;;;;;;;;;7.77;100.00;100598.25;5073062;28;19927;-55
2021/12/11 02:00:28;;;;;;;;;;;;;;;7.78;100.00;100607.91;5072623;28;19921;-52
2021/12/11 02:02:54;;;;;;;;;;;;;;;7.80;100.00;100608.53;5073628;28;19925;-51
2021/12/11 02:05:22;;;;;;;;;;;;;;;7.82;100.00;100617.16;5073284;28;20395;-50
2021/12/11 02:07:51;;;;;;;;;;;;;;;7.83;100.00;100624.16;5072578;28;20318;-51
2021/12/11 02:10:28;;;;;;;;;;;;;;;7.85;100.00;100624.81;5074038;28;19920;-54
2021/12/11 02:12:54;;;;;;;;;;;;;;;7.91;100.00;100628.56;5077373;28;19967;-47
2021/12/11 02:15:25;;;;;;;;;;;;;;;8.02;100.00;100628.13;5077275;28;19924;-54
2021/12/11 02:17:55;;;;;;;;;;;;;;;8.03;100.00;100634.25;5077595;28;19920;-49
2021/12/11 02:20:28;;;;;;;;;;;;;;;8.05;100.00;100632.25;5077318;28;19921;-48
2021/12/11 02:22:53;;;;;;;;;;;;;;;8.10;100.00;100642.34;5076168;28;20016;-53
2021/12/11 02:25:21;;;;;;;;;;;;;;;8.14;100.00;100641.81;5059866;28;20004;-52
2021/12/11 02:27:58;;;;;;;;;;;;;;;8.15;100.00;100654.13;5076156;28;19920;-55
2021/12/11 02:30:34;;;;;;;;;;;;;;;8.14;100.00;100657.78;5077470;28;19927;-51
2021/12/11 02:33:03;;;;;;;;;;;;;;;8.16;100.00;100657.59;5077509;28;19943;-49
2021/12/11 02:35:38;;;;;;;;;;;;;;;8.22;100.00;100664.03;5076252;28;20399;-50
2021/12/11 02:38:10;;;;;;;;;;;;;;;8.17;100.00;100673.41;5077137;28;19928;-49
2021/12/11 02:40:38;;;;;;;;;;;;;;;8.28;100.00;100673.94;5076735;28;20372;-49
2021/12/11 02:43:07;;;;;;;;;;;;;;;8.26;100.00;100675.97;5075969;28;20007;-53
2021/12/11 02:45:36;;;;;;;;;;;;;;;8.31;100.00;100676.25;5077096;28;19951;-49
2021/12/11 02:48:40;;;;;;;;;;;;;;;8.35;100.00;100679.38;5075875;28;19935;-50
2021/12/11 02:51:16;;;;;;;;;;;;;;;8.36;100.00;100681.84;5054849;28;19932;-52
2021/12/11 02:53:54;;;;;;;;;;;;;;;8.35;100.00;100682.88;5039074;28;19920;-49
2021/12/11 02:56:22;;;;;;;;;;;;;;;8.32;100.00;100693.91;5060365;28;19927;-50
2021/12/11 02:58:52;;;;;;;;;;;;;;;8.28;100.00;100692.59;5076805;28;19920;-52
2021/12/11 03:01:23;;;;;;;;;;;;;;;8.32;100.00;100697.38;5077007;28;20296;-47
2021/12/11 03:03:55;;;;;;;;;;;;;;;8.35;100.00;100706.00;5075339;28;20019;-50
2021/12/11 03:06:24;;;;;;;;;;;;;;;8.33;100.00;100714.22;5076852;28;19920;-48
2021/12/11 03:08:51;;;;;;;;;;;;;;;8.31;100.00;100709.06;5075747;28;19921;-56
2021/12/11 03:11:20;;;;;;;;;;;;;;;8.35;100.00;100714.84;5075729;28;20361;-55
2021/12/11 03:13:50;;;;;;;;;;;;;;;8.27;100.00;100718.44;5059367;28;20015;-54
2021/12/11 03:16:20;;;;;;;;;;;;;;;8.41;100.00;100724.75;5075301;28;19921;-54
2021/12/11 03:18:46;;;;;;;;;;;;;;;8.44;100.00;100723.59;5077008;28;19924;-55
2021/12/11 03:21:12;;;;;;;;;;;;;;;8.47;100.00;100720.53;5076059;28;19917;-50
2021/12/11 03:23:38;;;;;;;;;;;;;;;8.72;100.00;100731.75;5074145;28;20019;-56
2021/12/11 03:26:03;;;;;;;;;;;;;;;8.87;100.00;100730.91;5075515;28;20377;-54
2021/12/11 03:28:29;;;;;;;;;;;;;;;8.90;100.00;100743.88;5076192;28;19950;-53
2021/12/11 03:31:00;;;;;;;;;;;;;;;8.98;100.00;100738.41;5075271;28;20308;-49
2021/12/11 03:33:28;;;;;;;;;;;;;;;8.98;100.00;100737.59;5076252;28;19924;-55
2021/12/11 03:35:55;;;;;;;;;;;;;;;8.96;100.00;100740.44;5076233;28;19944;-51
2021/12/11 03:38:20;;;;;;;;;;;;;;;8.82;100.00;100733.31;5076046;28;19924;-51
2021/12/11 03:40:46;;;;;;;;;;;;;;;8.73;100.00;100733.41;5076245;28;19927;-50
2021/12/11 03:43:13;;;;;;;;;;;;;;;8.72;100.00;100738.94;5074750;28;19927;-55
2021/12/11 03:45:40;;;;;;;;;;;;;;;8.65;100.00;100736.19;5058781;28;19921;-52
2021/12/11 03:48:09;;;;;;;;;;;;;;;8.65;100.00;100736.19;5076270;28;19921;-49
2021/12/11 03:50:35;;;;;;;;;;;;;;;8.59;100.00;100737.75;5075451;28;20348;-49
2021/12/11 03:53:01;;;;;;;;;;;;;;;8.56;100.00;100745.31;5075735;28;20380;-51
2021/12/11 03:55:31;;;;;;;;;;;;;;;8.61;100.00;100742.91;5076354;28;19922;-50
2021/12/11 03:58:00;;;;;;;;;;;;;;;8.55;100.00;100746.31;5075641;28;19920;-52
2021/12/11 04:00:28;;;;;;;;;;;;;;;8.55;100.00;100749.78;5075010;28;19969;-48
2021/12/11 04:03:02;;;;;;;;;;;;;;;8.59;100.00;100751.06;5075459;28;19924;-49
2021/12/11 04:05:27;;;;;;;;;;;;;;;8.82;100.00;100754.66;5075746;28;19959;-50
2021/12/11 04:07:53;;;;;;;;;;;;;;;8.83;100.00;100762.44;5074843;28;19928;-51
2021/12/11 04:10:20;;;;;;;;;;;;;;;8.82;100.00;100766.13;5074521;28;20280;-53
2021/12/11 04:12:48;;;;;;;;;;;;;;;8.88;100.00;100760.09;5075326;28;19925;-49
2021/12/11 04:15:13;;;;;;;;;;;;;;;8.95;100.00;100767.34;5074188;28;19928;-50
2021/12/11 04:17:39;;;;;;;;;;;;;;;8.95;100.00;100770.00;5074135;28;19921;-54
2021/12/11 04:20:08;;;;;;;;;;;;;;;8.91;100.00;100777.53;5073920;28;19942;-49
2021/12/11 04:22:33;;;;;;;;;;;;;;;8.96;100.00;100790.31;5075359;28;19928;-49
2021/12/11 04:24:59;;;;;;;;;;;;;;;9.02;100.00;100784.22;5073958;28;20327;-51
2021/12/11 04:27:24;;;;;;;;;;;;;;;9.01;100.00;100796.75;5075266;28;19931;-53
2021/12/11 04:29:51;;;;;;;;;;;;;;;8.99;100.00;100804.09;5075592;28;19924;-53
2021/12/11 04:32:17;;;;;;;;;;;;;;;9.02;100.00;100809.09;5073963;28;20372;-52
2021/12/11 04:34:42;;;;;;;;;;;;;;;8.75;100.00;100803.38;5074404;28;20396;-53
2021/12/11 04:37:15;;;;;;;;;;;;;;;8.96;100.00;100809.81;5073766;28;20068;-51
2021/12/11 04:39:43;;;;;;;;;;;;;;;8.72;100.00;100814.41;5075126;28;20042;-53
2021/12/11 04:42:41;;;;;;;;;;;;;;;8.93;100.00;100822.69;5074957;28;19959;-54
2021/12/11 04:44:58;;;;;;;;;;;;;;;8.95;100.00;100821.47;5074706;28;20369;-50
2021/12/11 04:50:02;;;;;;;;;;;;;;;9.09;100.00;100819.00;5075985;28;19920;-51
2021/12/11 04:52:48;;;;;;;;;;;;;;;9.00;100.00;100821.78;5073705;28;20020;-48
2021/12/11 04:58:06;;;;;;;;;;;;;;;8.77;100.00;100835.19;5074979;28;19924;-49
2021/12/11 05:00:46;;;;;;;;;;;;;;;8.89;100.00;100830.22;5075002;28;19924;-53
2021/12/11 05:04:01;;;;;;;;;;;;;;;8.89;100.00;100835.56;5074911;28;20019;-47
2021/12/11 05:07:04;;;;;;;;;;;;;;;8.93;100.00;100836.03;5072532;28;20034;-47
2021/12/11 05:09:25;;;;;;;;;;;;;;;8.94;100.00;100827.84;5073956;28;20031;-56
2021/12/11 05:12:08;;;;;;;;;;;;;;;9.06;100.00;100832.72;5074422;28;20364;-56
2021/12/11 05:14:34;;;;;;;;;;;;;;;9.01;100.00;100836.78;5073676;28;19928;-52
2021/12/11 05:16:59;;;;;;;;;;;;;;;8.98;100.00;100845.13;5074594;28;19920;-50
2021/12/11 05:19:25;;;;;;;;;;;;;;;8.85;100.00;100843.09;5074081;28;20379;-55
2021/12/11 05:21:50;;;;;;;;;;;;;;;9.18;100.00;100845.41;5056996;28;19924;-53
2021/12/11 05:24:17;;;;;;;;;;;;;;;9.28;100.00;100841.59;5073959;28;20326;-47
2021/12/11 05:26:43;;;;;;;;;;;;;;;9.26;100.00;100849.81;5074134;28;20295;-48
2021/12/11 05:29:09;;;;;;;;;;;;;;;9.17;100.00;100849.09;5072711;28;20378;-48
2021/12/11 05:31:34;;;;;;;;;;;;;;;9.10;100.00;100858.81;5072819;28;19920;-49
2021/12/11 05:34:00;;;;;;;;;;;;;;;8.97;100.00;100859.47;5073839;28;19954;-52
2021/12/11 05:36:29;;;;;;;;;;;;;;;8.98;100.00;100853.13;5074146;28;19925;-46
2021/12/11 05:38:54;;;;;;;;;;;;;;;9.10;100.00;100848.16;5073324;28;19924;-51
2021/12/11 05:41:21;;;;;;;;;;;;;;;9.44;100.00;100853.91;5072464;28;20356;-52
2021/12/11 05:43:47;;;;;;;;;;;;;;;9.33;100.00;100856.03;5074531;28;19943;-51
2021/12/11 05:46:14;;;;;;;;;;;;;;;9.10;100.00;100850.81;5071946;28;20373;-48
2021/12/11 05:48:41;;;;;;;;;;;;;;;9.23;100.00;100860.84;5073633;28;19920;-50
2021/12/11 05:51:09;;;;;;;;;;;;;;;9.18;100.00;100861.41;5074088;28;19965;-50
2021/12/11 05:53:34;;;;;;;;;;;;;;;9.47;100.00;100865.03;5073860;28;19927;-48
2021/12/11 05:56:03;;;;;;;;;;;;;;;9.09;100.00;100867.84;5073712;28;19917;-52
2021/12/11 05:58:46;;;;;;;;;;;;;;;9.07;100.00;100864.53;5073718;28;19921;-50
2021/12/11 06:01:12;;;;;;;;;;;;;;;9.13;100.00;100873.63;5074070;28;20357;-52
2021/12/11 06:03:37;;;;;;;;;;;;;;;9.17;100.00;100869.59;5072320;28;19927;-50
2021/12/11 06:06:04;;;;;;;;;;;;;;;9.48;100.00;100860.53;5072944;28;20019;-50
2021/12/11 06:08:31;;;;;;;;;;;;;;;9.30;100.00;100864.44;5073421;28;19927;-51
2021/12/11 06:10:57;;;;;;;;;;;;;;;9.20;100.00;100869.22;5072249;28;19920;-51
2021/12/11 06:13:24;;;;;;;;;;;;;;;9.28;100.00;100870.94;5073690;28;19963;-51
2021/12/11 06:15:51;;;;;;;;;;;;;;;9.33;100.00;100872.06;5073348;28;19925;-48
2021/12/11 06:18:18;;;;;;;;;;;;;;;8.96;100.00;100889.81;5072323;28;19925;-48
2021/12/11 06:20:44;;;;;;;;;;;;;;;8.71;100.00;100895.41;5072378;28;19963;-54
2021/12/11 06:23:09;;;;;;;;;;;;;;;8.24;100.00;100891.13;5073305;28;19967;-51
2021/12/11 06:25:35;;;;;;;;;;;;;;;8.61;100.00;100886.84;5073275;28;20399;-52
2021/12/11 06:28:01;;;;;;;;;;;;;;;8.43;100.00;100903.16;5072323;28;19921;-51
2021/12/11 06:30:27;;;;;;;;;;;;;;;8.62;100.00;100899.19;5072122;28;20368;-49
2021/12/11 06:32:54;;;;;;;;;;;;;;;8.79;100.00;100905.16;5073825;28;19928;-49
2021/12/11 06:35:23;;;;;;;;;;;;;;;9.23;100.00;100902.72;5073412;28;20252;-49
2021/12/11 06:37:49;;;;;;;;;;;;;;;8.94;100.00;100913.19;5071957;28;20004;-49
2021/12/11 06:40:16;;;;;;;;;;;;;;;9.45;100.00;100904.44;5072084;28;20525;-52
2021/12/11 06:42:41;;;;;;;;;;;;;;;9.23;100.00;100906.22;5073107;28;19916;-48
2021/12/11 06:45:07;;;;;;;;;;;;;;;8.94;100.00;100915.84;5071894;28;20015;-51
2021/12/11 06:47:32;;;;;;;;;;;;;;;9.21;100.00;100908.22;5073543;28;19924;-51
2021/12/11 06:49:58;;;;;;;;;;;;;;;9.27;100.00;100915.50;5073816;28;19943;-51
2021/12/11 06:52:24;;;;;;;;;;;;;;;9.23;100.00;100924.06;5071733;28;19932;-49
2021/12/11 06:54:51;;;;;;;;;;;;;;;9.24;100.00;100921.22;5072514;28;19934;-50
2021/12/11 06:57:17;;;;;;;;;;;;;;;8.88;100.00;100927.25;5074862;28;19921;-49
2021/12/11 06:59:42;;;;;;;;;;;;;;;8.93;100.00;100926.72;5076189;28;20020;-51
2021/12/11 07:02:08;;;;;;;;;;;;;;;9.08;100.00;100935.53;5075760;28;20274;-47
2021/12/11 07:04:34;;;;;;;;;;;;;;;8.99;100.00;100934.00;5042509;28;20376;-50
2021/12/11 07:07:00;;;;;;;;;;;;;;;8.95;100.00;100951.38;5075814;28;19928;-52
2021/12/11 07:09:26;;;;;;;;;;;;;;;8.98;100.00;100954.47;5077134;28;19924;-54
2021/12/11 07:11:52;;;;;;;;;;;;;;;9.26;100.00;100945.03;5076371;28;19924;-50
2021/12/11 07:14:19;;;;;;;;;;;;;;;9.03;100.00;100956.63;5076336;28;19920;-49
2021/12/11 07:16:45;;;;;;;;;;;;;;;9.18;100.00;100951.28;5076802;28;19926;-53
2021/12/11 07:19:11;;;;;;;;;;;;;;;9.30;100.00;100949.84;5076617;28;20374;-50
2021/12/11 07:21:37;;;;;;;;;;;;;;;9.40;100.00;100956.72;5075948;28;20388;-54
2021/12/11 07:24:04;;;;;;;;;;;;;;;9.60;100.00;100957.00;5076476;28;19924;-47
2021/12/11 07:26:32;;;;;;;;;;;;;;;9.48;100.00;100959.31;5075231;28;20011;-49
2021/12/11 07:29:05;;;;;;;;;;;;;;;9.23;100.00;100956.09;5075995;28;20018;-50
2021/12/11 07:31:30;;;;;;;;;;;;;;;9.79;100.00;100965.41;5075131;28;19922;-52
2021/12/11 07:33:56;;;;;;;;;;;;;;;9.63;100.00;100972.66;5076046;28;19942;-47
2021/12/11 07:36:22;;;;;;;;;;;;;;;9.82;100.00;100971.22;5076001;28;20380;-47
2021/12/11 07:38:48;;;;;;;;;;;;;;;10.13;100.00;100980.00;5076323;28;19973;-48
2021/12/11 07:41:15;;;;;;;;;;;;;;;10.45;100.00;100984.06;5075039;28;19924;-51
2021/12/11 07:43:41;;;;;;;;;;;;;;;10.91;100.00;100990.03;5075209;28;19973;-50
2021/12/11 07:46:09;;;;;;;;;;;;;;;10.80;100.00;100995.88;5076060;28;19920;-52
2021/12/11 07:48:35;;;;;;;;;;;;;;;10.92;100.00;100998.84;5076029;28;20396;-54
2021/12/11 07:51:01;;;;;;;;;;;;;;;10.81;100.00;101009.09;5075927;28;20015;-50
2021/12/11 07:53:26;;;;;;;;;;;;;;;10.49;100.00;101007.75;5075970;28;19960;-50
2021/12/11 07:55:52;;;;;;;;;;;;;;;10.62;100.00;101023.94;5075052;28;20280;-50
2021/12/11 07:58:19;;;;;;;;;;;;;;;10.66;100.00;101019.84;5075836;28;20374;-52
2021/12/11 08:00:45;;;;;;;;;;;;;;;10.73;100.00;101033.28;5074551;28;20019;-50
2021/12/11 08:03:12;;;;;;;;;;;;;;;10.85;100.00;101042.44;5075991;28;20027;-52
2021/12/11 08:05:38;;;;;;;;;;;;;;;10.90;100.00;101058.75;5074352;28;20008;-49
2021/12/11 08:08:06;;;;;;;;;;;;;;;11.05;100.00;101055.19;5074068;28;19927;-48
2021/12/11 08:10:33;;;;;;;;;;;;;;;11.06;100.00;101064.84;5073624;28;20426;-49
2021/12/11 08:12:58;;;;;;;;;;;;;;;10.98;100.00;101068.50;5075242;28;20372;-53
2021/12/11 08:15:24;;;;;;;;;;;;;;;11.04;100.00;101075.75;5075243;28;19931;-48
2021/12/11 08:17:52;;;;;;;;;;;;;;;11.19;100.00;101091.75;5075722;28;19927;-52
2021/12/11 08:20:18;;;;;;;;;;;;;;;11.32;100.00;101095.53;5074978;28;19927;-48
2021/12/11 08:22:44;;;;;;;;;;;;;;;11.27;100.00;101104.16;5075103;28;19925;-48
2021/12/11 08:25:10;;;;;;;;;;;;;;;11.32;100.00;101109.78;5073763;28;19931;-50
2021/12/11 08:27:36;;;;;;;;;;;;;;;11.30;100.00;101119.84;5075765;28;19936;-50
2021/12/11 08:30:02;;;;;;;;;;;;;;;11.26;100.00;101128.44;5074115;28;19920;-49
2021/12/11 08:32:28;;;;;;;;;;;;;;;11.11;100.00;101125.84;5074145;28;20341;-50
2021/12/11 08:34:53;;;;;;;;;;;;;;;11.04;100.00;101142.66;5074787;28;19931;-51
2021/12/11 08:37:20;;;;;;;;;;;;;;;11.15;100.00;101151.22;5074818;28;20521;-47
2021/12/11 08:39:47;;;;;;;;;;;;;;;11.08;100.00;101150.31;5073603;28;20011;-54
2021/12/11 08:42:14;;;;;;;;;;;;;;;11.09;100.00;101151.97;5073445;28;19917;-53
2021/12/11 08:44:48;;;;;;;;;;;;;;;11.15;100.00;101153.88;5073974;28;20011;-50
2021/12/11 08:47:14;;;;;;;;;;;;;;;11.16;100.00;101158.22;5074087;28;19955;-48
2021/12/11 08:49:41;;;;;;;;;;;;;;;11.15;100.00;101160.06;5073039;28;19971;-48
2021/12/11 08:52:26;;;;;;;;;;;;;;;11.04;100.00;101176.63;5074652;28;19970;-50
2021/12/11 08:54:52;;;;;;;;;;;;;;;11.16;100.00;101185.81;5074522;28;20360;-50
2021/12/11 08:57:22;;;;;;;;;;;;;;;11.07;100.00;101191.47;5073399;28;19959;-48
2021/12/11 08:59:50;;;;;;;;;;;;;;;11.10;100.00;101204.50;5074390;28;19920;-47
2021/12/11 09:02:21;;;;;;;;;;;;;;;11.11;100.00;101211.50;5074037;28;19925;-51
2021/12/11 09:04:55;;;;;;;;;;;;;;;10.95;100.00;101226.75;5074399;28;19963;-53
2021/12/11 09:07:43;;;;;;;;;;;;;;;11.05;100.00;101231.81;5073185;28;19942;-52
2021/12/11 09:10:11;;;;;;;;;;;;;;;10.92;100.00;101235.19;5063757;28;19921;-53
2021/12/11 09:12:42;;;;;;;;;;;;;;;10.87;100.00;101238.41;5073206;28;19917;-47
2021/12/11 09:15:13;;;;;;;;;;;;;;;10.74;100.00;101246.28;5074556;28;19921;-48
2021/12/11 09:17:41;;;;;;;;;;;;;;;10.84;100.00;101248.63;5073590;28;19920;-46
2021/12/11 09:20:26;;;;;;;;;;;;;;;11.04;100.00;101256.94;5071807;28;19920;-48
2021/12/11 09:22:54;;;;;;;;;;;;;;;11.02;100.00;101278.50;5073909;28;20008;-47
2021/12/11 09:25:23;;;;;;;;;;;;;;;11.10;100.00;101279.44;5072087;28;20111;-49
2021/12/11 09:27:51;;;;;;;;;;;;;;;11.12;100.00;101283.56;5073321;28;20007;-51
2021/12/11 09:30:19;;;;;;;;;;;;;;;11.13;100.00;101285.22;5073344;28;20275;-51
2021/12/11 09:32:45;;;;;;;;;;;;;;;11.13;100.00;101292.44;5072047;28;20256;-49
2021/12/11 09:35:13;;;;;;;;;;;;;;;11.21;100.00;101286.97;5071766;28;19923;-53
2021/12/11 09:37:40;;;;;;;;;;;;;;;11.28;100.00;101303.94;5073709;28;19920;-53
2021/12/11 09:40:09;;;;;;;;;;;;;;;11.29;100.00;101297.56;5073459;28;19925;-52
2021/12/11 09:42:34;;;;;;;;;;;;;;;11.35;100.00;101297.84;5073115;28;19951;-47
2021/12/11 09:45:09;;;;;;;;;;;;;;;11.33;100.00;101301.53;5073177;28;19921;-50
2021/12/11 09:47:39;;;;;;;;;;;;;;;11.41;100.00;101302.44;5071622;28;19947;-48
2021/12/11 09:50:09;;;;;;;;;;;;;;;11.40;100.00;101316.84;5073279;28;19927;-52
2021/12/11 09:52:35;;;;;;;;;;;;;;;11.47;100.00;101323.09;5072177;28;19920;-50
2021/12/11 09:55:03;;;;;;;;;;;;;;;11.60;100.00;101323.25;5073528;28;19961;-50
2021/12/11 09:57:31;;;;;;;;;;;;;;;11.68;100.00;101327.66;5071669;28;19920;-53
2021/12/11 09:59:58;;;;;;;;;;;;;;;11.55;100.00;101331.03;5072411;28;19920;-49
2021/12/11 10:02:26;;;;;;;;;;;;;;;11.53;100.00;101326.88;5072860;28;19990;-49
2021/12/11 10:05:01;;;;;;;;;;;;;;;11.58;100.00;101327.13;5072812;28;20011;-48
2021/12/11 10:07:35;;;;;;;;;;;;;;;11.55;100.00;101331.03;5072669;28;19920;-52
2021/12/11 10:10:11;;;;;;;;;;;;;;;11.76;100.00;101332.88;5073290;28;19956;-47
2021/12/11 10:12:40;;;;;;;;;;;;;;;11.86;100.00;101337.91;5072473;28;20019;-51
2021/12/11 10:15:14;;;;;;;;;;;;;;;11.52;100.00;101341.28;5072676;28;20097;-47
2021/12/11 10:17:43;;;;;;;;;;;;;;;11.63;100.00;101348.81;5072795;28;19920;-47
2021/12/11 10:20:28;;;;;;;;;;;;;;;11.62;100.00;101349.81;5073399;28;19943;-47
2021/12/11 10:22:55;;;;;;;;;;;;;;;11.64;100.00;101355.00;5072326;28;19926;-53
2021/12/11 10:25:22;;;;;;;;;;;;;;;11.42;100.00;101365.69;5072758;28;20003;-53
2021/12/11 10:27:48;;;;;;;;;;;;;;;11.45;100.00;101367.97;5072023;28;19920;-51
2021/12/11 10:30:18;;;;;;;;;;;;;;;11.90;100.00;101360.63;5072902;28;20020;-50
2021/12/11 10:32:43;;;;;;;;;;;;;;;11.63;100.00;101364.88;5075054;28;19917;-52
2021/12/11 10:35:20;;;;;;;;;;;;;;;11.46;100.00;101358.94;5076794;28;19951;-53
2021/12/11 10:37:46;;;;;;;;;;;;;;;11.67;100.00;101362.66;5076811;28;19924;-48
2021/12/11 10:40:15;;;;;;;;;;;;;;;11.53;100.00;101359.81;5059445;28;19931;-53
2021/12/11 10:42:42;;;;;;;;;;;;;;;12.07;100.00;101376.50;5076368;28;20380;-49
2021/12/11 10:45:08;;;;;;;;;;;;;;;11.58;100.00;101369.97;5076470;28;19974;-49
2021/12/11 10:47:37;;;;;;;;;;;;;;;11.69;100.00;101374.84;5076497;28;19948;-49
2021/12/11 10:50:12;;;;;;;;;;;;;;;12.21;100.00;101377.44;5076928;28;19932;-48
2021/12/11 10:52:38;;;;;;;;;;;;;;;12.26;100.00;101376.88;5076016;28;20288;-48
2021/12/11 10:55:05;;;;;;;;;;;;;;;12.28;100.00;101388.22;5076339;28;20022;-52
2021/12/11 10:57:32;;;;;;;;;;;;;;;12.47;100.00;101384.88;5075933;28;19927;-54
2021/12/11 10:59:58;;;;;;;;;;;;;;;11.76;100.00;101389.16;5076903;28;20054;-55
2021/12/11 11:02:33;;;;;;;;;;;;;;;11.66;100.00;101394.00;5075986;28;19921;-53
2021/12/11 11:05:00;;;;;;;;;;;;;;;11.70;100.00;101399.78;5076648;28;19927;-52
2021/12/11 11:07:27;;;;;;;;;;;;;;;11.29;100.00;101412.69;5076416;28;19943;-52
2021/12/11 11:09:55;;;;;;;;;;;;;;;11.23;100.00;101420.66;5074965;28;19927;-53
2021/12/11 11:12:21;;;;;;;;;;;;;;;10.70;100.00;101427.72;5076162;28;20034;-51
2021/12/11 11:14:48;;;;;;;;;;;;;;;11.59;100.00;101436.78;5075947;28;19935;-49
2021/12/11 11:17:14;;;;;;;;;;;;;;;11.48;100.00;101435.41;5075164;28;20061;-53
2021/12/11 11:19:41;;;;;;;;;;;;;;;11.40;100.00;101442.72;5076082;28;20331;-53
2021/12/11 11:22:08;;;;;;;;;;;;;;;11.19;100.00;101444.28;5076326;28;19970;-54
2021/12/11 11:24:37;;;;;;;;;;;;;;;11.66;100.00;101449.41;5076152;28;19920;-55
2021/12/11 11:27:03;;;;;;;;;;;;;;;11.70;100.00;101445.34;5076176;28;19959;-54
2021/12/11 11:29:29;;;;;;;;;;;;;;;11.28;100.00;101443.16;5076756;28;20003;-56
2021/12/11 11:31:57;;;;;;;;;;;;;;;11.71;100.00;101447.00;5076221;28;20015;-54
2021/12/11 11:34:24;;;;;;;;;;;;;;;12.01;100.00;101447.78;5075017;28;19923;-54
2021/12/11 11:36:50;;;;;;;;;;;;;;;12.09;100.00;101449.53;5076143;28;19920;-54
2021/12/11 11:39:16;;;;;;;;;;;;;;;12.39;100.00;101454.75;5075593;28;19924;-53
2021/12/11 11:41:49;;;;;;;;;;;;;;;12.31;100.00;101450.34;5075773;28;20408;-53
2021/12/11 11:44:18;;;;;;;;;;;;;;;12.28;100.00;101457.97;5074687;28;20412;-54
2021/12/11 11:46:44;;;;;;;;;;;;;;;12.44;100.00;101460.34;5074592;28;19978;-54
2021/12/11 11:49:11;;;;;;;;;;;;;;;12.54;100.00;101467.28;5076128;28;19920;-54
2021/12/11 11:51:39;;;;;;;;;;;;;;;12.55;100.00;101475.09;5075525;28;19955;-54
2021/12/11 11:54:05;;;;;;;;;;;;;;;12.37;100.00;101472.88;5075625;28;19920;-52
2021/12/11 11:56:32;;;;;;;;;;;;;;;12.36;100.00;101473.91;5076010;28;20015;-54
2021/12/11 11:58:58;;;;;;;;;;;;;;;12.40;100.00;101472.50;5074190;28;19966;-53
2021/12/11 12:01:28;;;;;;;;;;;;;;;12.25;100.00;101475.25;5076610;28;20019;-51
2021/12/11 12:03:55;;;;;;;;;;;;;;;12.65;100.00;101477.47;5075549;28;19927;-48
2021/12/11 12:06:25;;;;;;;;;;;;;;;12.80;100.00;101482.78;5074380;28;20015;-50
2021/12/11 12:08:54;;;;;;;;;;;;;;;12.72;100.00;101486.41;5074109;28;20361;-54
2021/12/11 12:11:20;;;;;;;;;;;;;;;13.23;100.00;101497.09;5074906;28;19920;-51
2021/12/11 12:13:46;;;;;;;;;;;;;;;15.11;100.00;101494.94;5074382;28;19928;-52
2021/12/11 12:16:12;;;;;;;;;;;;;;;16.95;100.00;101494.59;5074971;28;19920;-52
2021/12/11 12:18:41;;;;;;;;;;;;;;;18.10;100.00;101502.25;5075062;28;20015;-55
2021/12/11 12:21:09;;;;;;;;;;;;;;;17.99;100.00;101505.69;5075049;28;19920;-54
2021/12/11 12:23:34;;;;;;;;;;;;;;;18.48;100.00;101511.06;5074646;28;19970;-52
2021/12/11 12:26:01;;;;;;;;;;;;;;;18.03;100.00;101513.16;5075045;28;20327;-55
2021/12/11 12:28:28;;;;;;;;;;;;;;;17.86;100.00;101512.97;5075140;28;20000;-53
2021/12/11 12:30:55;;;;;;;;;;;;;;;18.08;96.42;101511.66;5073646;28;19925;-56
2021/12/11 12:33:21;;;;;;;;;;;;;;;17.59;100.00;101510.59;5073404;28;19916;-52
2021/12/11 12:35:47;;;;;;;;;;;;;;;17.55;100.00;101508.56;5073481;28;20019;-53
2021/12/11 12:38:14;;;;;;;;;;;;;;;17.62;100.00;101504.72;5074942;28;19920;-53
2021/12/11 12:40:59;;;;;;;;;;;;;;;17.38;100.00;101516.44;5073499;28;19917;-54
2021/12/11 12:43:53;;;;;;;;;;;;;;;18.36;100.00;101512.94;5074729;28;20280;-54
2021/12/11 12:46:13;;;;;;;;;;;;;;;19.52;91.11;101519.72;5074490;28;19959;-54
2021/12/11 12:48:39;;;;;;;;;;;;;;;19.85;99.31;101523.66;5072890;28;19921;-50